Time;durP1;ratioP1;P1;durP2;ratioP2;P2;SDS_P1;SDS_P2;PMS_P1;PMS_P2;Temp;Humidity;BMP_temperature;BMP_pressure;BME280_temperature;BME280_humidity;BME280_pressure;Samples;Min_cycle;Max_cycle;Signal;HPM_P1;HPM_P2
2021/05/06 00:32:01;;;;;;;0.00;0.00;;;7.00;99.90;;;;;;5071215;28;20307;-80
2021/05/06 00:34:27;;;;;;;0.00;0.00;;;7.10;99.90;;;;;;5067230;28;20178;-80
2021/05/06 00:36:53;;;;;;;0.10;0.10;;;7.10;99.90;;;;;;5054945;28;20720;-80
2021/05/06 00:39:36;;;;;;;0.00;0.00;;;7.20;99.90;;;;;;5035970;28;20206;-80
2021/05/06 01:04:08;;;;;;;0.13;0.13;;;7.10;99.90;;;;;;5024613;28;20213;-80
2021/05/06 01:06:43;;;;;;;0.00;0.00;;;7.20;99.90;;;;;;5051643;28;20197;-80
2021/05/06 01:09:11;;;;;;;0.00;0.00;;;7.10;99.90;;;;;;5052597;28;20564;-80
2021/05/06 01:11:43;;;;;;;0.10;0.10;;;7.10;99.90;;;;;;5046463;28;20174;-80
2021/05/06 01:14:10;;;;;;;0.10;0.10;;;7.10;99.90;;;;;;5052523;28;20257;-80
2021/05/06 01:16:36;;;;;;;0.10;0.10;;;7.10;99.90;;;;;;5051428;28;20347;-80
2021/05/06 01:19:02;;;;;;;0.10;0.10;;;7.00;99.90;;;;;;5052457;28;20256;-81
2021/05/06 01:21:27;;;;;;;0.10;0.10;;;7.00;99.90;;;;;;5052165;28;20265;-80
2021/05/06 01:23:54;;;;;;;0.30;0.30;;;6.90;99.90;;;;;;5043551;28;20244;-82
2021/05/06 01:26:36;;;;;;;0.00;0.00;;;6.90;99.90;;;;;;5047360;28;20220;-78
2021/05/06 01:29:07;;;;;;;0.10;0.10;;;6.90;99.90;;;;;;5044807;28;20193;-80
2021/05/06 01:31:36;;;;;;;1.20;0.20;;;6.90;99.90;;;;;;5053617;28;20193;-80
2021/05/06 01:36:49;;;;;;;0.10;0.10;;;6.80;99.90;;;;;;5050793;28;20209;-80
2021/05/06 01:42:07;;;;;;;0.10;0.10;;;6.90;99.90;;;;;;5037569;28;20194;-79
2021/05/06 02:00:50;;;;;;;0.10;0.10;;;6.50;99.90;;;;;;5047430;28;20185;-80
2021/05/06 02:03:16;;;;;;;0.10;0.10;;;6.40;99.90;;;;;;5050366;28;20185;-80
2021/05/06 02:05:41;;;;;;;0.10;0.10;;;6.50;99.90;;;;;;5051858;28;20579;-80
2021/05/06 02:08:07;;;;;;;0.10;0.10;;;6.50;99.90;;;;;;5046656;28;20561;-79
2021/05/06 02:10:33;;;;;;;0.07;0.03;;;6.50;99.90;;;;;;5050350;28;20269;-80
2021/05/06 02:12:59;;;;;;;0.00;0.00;;;6.50;99.90;;;;;;5055673;28;20324;-80
2021/05/06 02:16:01;;;;;;;0.00;0.00;;;6.50;99.90;;;;;;5052095;28;20826;-80
2021/05/06 02:18:18;;;;;;;0.13;0.13;;;6.50;99.90;;;;;;5048527;28;20186;-80
2021/05/06 02:20:45;;;;;;;0.20;0.20;;;6.40;99.90;;;;;;5044956;28;20186;-79
2021/05/06 02:23:11;;;;;;;0.13;0.13;;;6.30;99.90;;;;;;5034615;28;20182;-80
2021/05/06 02:25:37;;;;;;;0.00;0.00;;;6.20;99.90;;;;;;5050721;28;20824;-80
2021/05/06 02:28:03;;;;;;;0.20;0.20;;;6.20;99.90;;;;;;5050849;28;20186;-80
2021/05/06 02:30:28;;;;;;;0.07;0.07;;;6.10;99.90;;;;;;5045300;28;20555;-79
2021/05/06 02:32:54;;;;;;;0.10;0.10;;;6.10;99.90;;;;;;5040670;28;20190;-80
2021/05/06 02:35:20;;;;;;;0.00;0.00;;;6.10;99.90;;;;;;5051972;28;20185;-79
2021/05/06 02:37:45;;;;;;;0.10;0.10;;;6.00;99.90;;;;;;5051450;28;20182;-80
2021/05/06 02:40:11;;;;;;;0.10;0.10;;;5.90;99.90;;;;;;5054433;28;20193;-78
2021/05/06 02:42:38;;;;;;;0.03;0.03;;;5.90;99.90;;;;;;5056076;28;20199;-80
2021/05/06 02:45:06;;;;;;;0.10;0.10;;;5.90;99.90;;;;;;5055771;28;20196;-80
2021/05/06 02:47:31;;;;;;;0.00;0.00;;;5.80;99.90;;;;;;5055220;28;20692;-80
2021/05/06 02:49:57;;;;;;;0.10;0.10;;;5.70;99.90;;;;;;5055338;28;20189;-80
2021/05/06 02:52:38;;;;;;;0.10;0.10;;;5.60;99.90;;;;;;5052226;28;20702;-80
2021/05/06 02:55:13;;;;;;;0.10;0.10;;;5.50;99.90;;;;;;5050444;28;20190;-80
2021/05/06 02:57:43;;;;;;;0.00;0.00;;;5.40;99.90;;;;;;5053974;28;20304;-80
2021/05/06 03:02:56;;;;;;;1.80;0.40;;;5.40;99.90;;;;;;5051184;28;20672;-80
2021/05/06 03:05:25;;;;;;;0.00;0.00;;;5.40;99.90;;;;;;5050599;28;20182;-80
2021/05/06 03:08:00;;;;;;;0.10;0.10;;;5.30;99.90;;;;;;5049755;28;20638;-79
2021/05/06 03:10:48;;;;;;;0.00;0.00;;;5.40;99.90;;;;;;5052127;28;20186;-80
2021/05/06 03:13:56;;;;;;;0.00;0.00;;;5.40;99.90;;;;;;5053035;28;20664;-80
2021/05/06 03:24:16;;;;;;;0.10;0.10;;;5.50;99.90;;;;;;5044879;28;20200;-80
2021/05/06 03:26:42;;;;;;;0.17;0.17;;;5.50;99.90;;;;;;5051460;28;20226;-79
2021/05/06 03:29:15;;;;;;;0.00;0.00;;;5.60;99.90;;;;;;5046571;28;20201;-80
2021/05/06 03:42:24;;;;;;;0.10;0.10;;;5.50;99.90;;;;;;5048707;28;20760;-80
2021/05/06 03:47:56;;;;;;;0.10;0.10;;;5.60;99.90;;;;;;5049290;28;20203;-80
2021/05/06 04:25:52;;;;;;;0.10;0.10;;;6.00;99.90;;;;;;5052525;28;20181;-80
2021/05/06 04:36:29;;;;;;;0.20;0.20;;;6.30;99.90;;;;;;5046021;28;20291;-80
2021/05/06 04:38:44;;;;;;;0.03;0.03;;;6.50;99.90;;;;;;5045514;28;20190;-83
2021/05/06 05:04:59;;;;;;;0.57;0.30;;;6.90;99.90;;;;;;5052286;28;20197;-81
2021/05/06 05:25:16;;;;;;;0.00;0.00;;;7.00;99.90;;;;;;5051704;28;20740;-80
2021/05/06 05:27:42;;;;;;;0.00;0.00;;;7.00;99.90;;;;;;5048111;28;20175;-79
2021/05/06 05:30:09;;;;;;;0.30;0.30;;;7.10;99.90;;;;;;5048503;28;20181;-79
2021/05/06 05:32:35;;;;;;;0.43;0.10;;;7.20;99.90;;;;;;5038855;28;20183;-80
2021/05/06 05:35:15;;;;;;;0.30;0.30;;;7.20;99.90;;;;;;5041576;28;20723;-80
2021/05/06 05:37:48;;;;;;;0.27;0.27;;;7.20;99.90;;;;;;5047073;28;20555;-80
2021/05/06 05:56:01;;;;;;;0.10;0.10;;;7.70;99.90;;;;;;5046911;28;20209;-80
2021/05/06 05:58:27;;;;;;;0.30;0.20;;;7.70;99.90;;;;;;5044979;28;20171;-82
2021/05/06 06:00:52;;;;;;;0.17;0.17;;;7.70;99.90;;;;;;5047695;28;20185;-81
2021/05/06 06:03:18;;;;;;;0.10;0.10;;;7.60;99.90;;;;;;5043545;28;20181;-80
2021/05/06 06:05:44;;;;;;;0.63;0.30;;;7.60;99.90;;;;;;5048051;28;20210;-79
2021/05/06 06:08:09;;;;;;;0.20;0.20;;;7.80;99.90;;;;;;5053238;28;20190;-80
2021/05/06 06:10:35;;;;;;;0.10;0.10;;;7.80;99.90;;;;;;5046877;28;20696;-79
2021/05/06 06:13:01;;;;;;;0.10;0.10;;;7.90;99.90;;;;;;5049869;28;20269;-78
2021/05/06 06:18:31;;;;;;;0.10;0.10;;;8.00;99.90;;;;;;5045818;28;20206;-79
2021/05/06 06:21:11;;;;;;;0.10;0.10;;;8.20;99.90;;;;;;5046335;28;20675;-77
2021/05/06 06:23:37;;;;;;;0.23;0.23;;;8.20;99.90;;;;;;5043532;28;20180;-82
2021/05/06 06:26:03;;;;;;;0.10;0.10;;;8.30;99.90;;;;;;5051879;28;20220;-81
2021/05/06 06:28:36;;;;;;;0.10;0.10;;;8.20;99.90;;;;;;5052900;28;20178;-81
2021/05/06 06:31:01;;;;;;;0.37;0.37;;;8.20;99.90;;;;;;5052230;28;20179;-81
2021/05/06 06:33:27;;;;;;;0.20;0.20;;;8.20;99.90;;;;;;5051478;28;20533;-81
2021/05/06 06:35:53;;;;;;;0.00;0.00;;;8.20;99.90;;;;;;5055538;28;20215;-81
2021/05/06 06:38:18;;;;;;;0.07;0.07;;;8.30;99.90;;;;;;5052856;28;20200;-81
2021/05/06 06:40:44;;;;;;;2.80;0.17;;;8.40;99.90;;;;;;5051399;28;20705;-81
2021/05/06 06:43:10;;;;;;;0.10;0.10;;;8.50;99.90;;;;;;5050871;28;20188;-82
2021/05/06 06:45:36;;;;;;;0.17;0.17;;;8.30;99.90;;;;;;5054316;28;20195;-82
2021/05/06 06:48:01;;;;;;;0.20;0.20;;;8.50;99.90;;;;;;5051905;28;20189;-82
2021/05/06 06:50:27;;;;;;;0.20;0.20;;;8.60;99.90;;;;;;5051672;28;20262;-81
2021/05/06 06:52:53;;;;;;;0.53;0.20;;;8.70;99.90;;;;;;5051144;28;20185;-81
2021/05/06 06:55:19;;;;;;;0.20;0.20;;;8.70;99.90;;;;;;5048016;28;20213;-81
2021/05/06 06:57:44;;;;;;;0.10;0.10;;;8.90;99.90;;;;;;5052138;28;20212;-82
2021/05/06 07:00:10;;;;;;;0.10;0.10;;;8.90;99.90;;;;;;5051209;28;20191;-81
2021/05/06 07:02:36;;;;;;;0.10;0.10;;;9.00;99.90;;;;;;5052707;28;20201;-81
2021/05/06 07:05:03;;;;;;;0.13;0.13;;;8.90;99.90;;;;;;5052350;28;20654;-82
2021/05/06 07:07:29;;;;;;;0.20;0.20;;;8.80;99.90;;;;;;5052145;28;20208;-81
2021/05/06 07:09:55;;;;;;;0.20;0.20;;;8.70;99.90;;;;;;5052484;28;20262;-80
2021/05/06 07:12:20;;;;;;;0.10;0.10;;;8.60;99.90;;;;;;5050513;28;20329;-81
2021/05/06 07:14:46;;;;;;;0.40;0.20;;;8.60;99.90;;;;;;5052134;28;20209;-81
2021/05/06 07:17:11;;;;;;;1.73;0.40;;;8.70;99.90;;;;;;5052038;28;20207;-81
2021/05/06 07:19:37;;;;;;;0.97;0.70;;;8.70;99.90;;;;;;5051272;28;20182;-80
2021/05/06 07:22:03;;;;;;;0.10;0.10;;;8.80;99.90;;;;;;5051223;28;20192;-80
2021/05/06 07:24:31;;;;;;;0.17;0.17;;;9.00;99.90;;;;;;5054885;28;20205;-81
2021/05/06 07:26:57;;;;;;;0.10;0.10;;;9.20;99.90;;;;;;5055379;28;20219;-80
2021/05/06 07:29:23;;;;;;;0.10;0.10;;;9.60;99.90;;;;;;5042878;28;20701;-79
2021/05/06 07:31:50;;;;;;;0.33;0.33;;;9.50;99.90;;;;;;5041201;28;20188;-80
2021/05/06 07:34:16;;;;;;;0.10;0.10;;;9.60;99.90;;;;;;5046138;28;20595;-80
2021/05/06 07:36:41;;;;;;;0.10;0.10;;;9.60;99.90;;;;;;5047543;28;20211;-80
2021/05/06 07:39:07;;;;;;;0.10;0.10;;;9.70;99.90;;;;;;5040592;28;20714;-80
2021/05/06 07:41:33;;;;;;;0.20;0.20;;;9.80;99.90;;;;;;5044384;28;20188;-80
2021/05/06 07:43:59;;;;;;;0.30;0.30;;;10.10;99.90;;;;;;5045712;28;20238;-80
2021/05/06 07:46:24;;;;;;;0.20;0.20;;;10.10;99.90;;;;;;5051774;28;20576;-80
2021/05/06 07:48:51;;;;;;;0.10;0.10;;;10.20;99.90;;;;;;5052932;28;20740;-80
2021/05/06 07:51:17;;;;;;;0.10;0.10;;;10.10;99.90;;;;;;5052841;28;20310;-80
2021/05/06 07:53:47;;;;;;;0.30;0.30;;;10.10;99.90;;;;;;5047391;28;20275;-80
2021/05/06 07:56:13;;;;;;;0.57;0.57;;;10.10;99.90;;;;;;5051768;28;20212;-80
2021/05/06 07:58:39;;;;;;;1.30;0.50;;;10.10;99.90;;;;;;5039612;28;20200;-80
2021/05/06 08:01:05;;;;;;;0.10;0.10;;;10.30;99.90;;;;;;5036238;28;20173;-80
2021/05/06 08:03:30;;;;;;;0.20;0.20;;;10.40;99.90;;;;;;5049281;28;20263;-79
2021/05/06 08:05:57;;;;;;;0.10;0.10;;;10.50;99.90;;;;;;5042727;28;20319;-80
2021/05/06 08:08:24;;;;;;;0.10;0.10;;;10.70;99.90;;;;;;5042238;28;20193;-80
2021/05/06 08:10:50;;;;;;;0.10;0.10;;;10.90;99.90;;;;;;5048461;28;20184;-80
2021/05/06 08:13:15;;;;;;;0.20;0.20;;;11.10;99.90;;;;;;5047956;28;20691;-80
2021/05/06 08:15:41;;;;;;;0.10;0.10;;;11.00;99.90;;;;;;5052440;28;20296;-81
2021/05/06 08:18:07;;;;;;;0.30;0.30;;;11.00;99.90;;;;;;5046901;28;20232;-80
2021/05/06 08:20:32;;;;;;;4.03;0.83;;;10.80;99.90;;;;;;5050157;28;20181;-80
2021/05/06 08:22:58;;;;;;;0.23;0.23;;;10.60;99.90;;;;;;5048280;28;20649;-81
2021/05/06 08:25:24;;;;;;;0.23;0.23;;;10.60;99.90;;;;;;5052710;28;20204;-80
2021/05/06 08:27:50;;;;;;;0.10;0.10;;;10.60;99.90;;;;;;5051424;28;20242;-80
2021/05/06 08:30:17;;;;;;;0.10;0.10;;;10.80;99.90;;;;;;5047136;28;20197;-81
2021/05/06 08:32:43;;;;;;;0.23;0.20;;;11.00;99.90;;;;;;5047784;28;20190;-80
2021/05/06 08:35:09;;;;;;;0.30;0.30;;;11.00;99.90;;;;;;5053385;28;20207;-81
2021/05/06 08:37:35;;;;;;;0.00;0.00;;;11.10;99.90;;;;;;5052702;28;20233;-80
2021/05/06 08:40:03;;;;;;;0.20;0.20;;;11.20;99.90;;;;;;5044958;28;20190;-81
2021/05/06 08:42:28;;;;;;;0.20;0.20;;;11.30;99.90;;;;;;5040986;28;20296;-81
2021/05/06 08:44:56;;;;;;;0.10;0.10;;;11.40;99.90;;;;;;5051579;28;20637;-81
2021/05/06 08:47:22;;;;;;;0.10;0.10;;;11.50;99.90;;;;;;5052122;28;20682;-81
2021/05/06 08:49:49;;;;;;;0.27;0.27;;;11.70;99.90;;;;;;5052038;28;20185;-80
2021/05/06 08:52:19;;;;;;;0.30;0.30;;;11.80;99.90;;;;;;5043542;28;20198;-79
2021/05/06 08:54:50;;;;;;;0.50;0.20;;;11.80;99.90;;;;;;5048491;28;20268;-84
2021/05/06 08:57:19;;;;;;;0.30;0.30;;;11.50;99.90;;;;;;5048802;28;20216;-81
2021/05/06 08:59:44;;;;;;;0.10;0.10;;;11.40;99.90;;;;;;5051317;28;20173;-81
2021/05/06 09:02:13;;;;;;;0.30;0.30;;;11.30;99.90;;;;;;5051180;28;20268;-81
2021/05/06 09:04:39;;;;;;;1.50;0.60;;;11.30;99.90;;;;;;5053313;28;20206;-81
2021/05/06 09:07:07;;;;;;;0.43;0.23;;;11.40;99.90;;;;;;5051183;28;20280;-81
2021/05/06 09:09:33;;;;;;;0.10;0.10;;;11.40;99.90;;;;;;5050879;28;20190;-81
2021/05/06 09:12:01;;;;;;;0.17;0.17;;;11.40;99.90;;;;;;5050916;28;20197;-82
2021/05/06 09:14:51;;;;;;;0.10;0.10;;;11.70;99.90;;;;;;5054396;28;20189;-81
2021/05/06 09:17:26;;;;;;;0.27;0.27;;;11.90;99.90;;;;;;5042637;28;20245;-81
2021/05/06 09:19:56;;;;;;;0.10;0.10;;;12.00;99.90;;;;;;5046929;28;20189;-79
2021/05/06 09:22:35;;;;;;;0.27;0.27;;;12.00;99.90;;;;;;5052834;28;20228;-81
2021/05/06 09:25:22;;;;;;;0.10;0.10;;;12.20;99.90;;;;;;5045474;28;20297;-80
2021/05/06 09:28:07;;;;;;;0.03;0.03;;;12.30;99.90;;;;;;5050405;28;20220;-81
2021/05/06 09:30:35;;;;;;;0.33;0.10;;;12.30;99.90;;;;;;5040196;28;20194;-81
2021/05/06 09:33:09;;;;;;;0.10;0.10;;;12.30;99.90;;;;;;5051314;28;20190;-81
2021/05/06 09:35:44;;;;;;;0.37;0.30;;;12.60;99.90;;;;;;5054243;28;20304;-81
2021/05/06 09:38:31;;;;;;;0.30;0.20;;;12.70;99.90;;;;;;5052836;28;20250;-80
2021/05/06 09:41:01;;;;;;;0.30;0.30;;;12.90;99.90;;;;;;5051292;28;20197;-82
2021/05/06 09:43:41;;;;;;;0.53;0.53;;;12.90;99.90;;;;;;5048700;28;20181;-80
2021/05/06 09:46:25;;;;;;;0.20;0.20;;;13.20;99.90;;;;;;5053114;28;20194;-81
2021/05/06 09:49:06;;;;;;;0.10;0.10;;;13.40;99.90;;;;;;5051084;28;20193;-79
2021/05/06 09:51:41;;;;;;;0.00;0.00;;;13.50;99.90;;;;;;5054284;28;20198;-81
2021/05/06 09:54:10;;;;;;;0.83;0.47;;;13.30;99.90;;;;;;5051521;28;20185;-81
2021/05/06 09:56:36;;;;;;;0.50;0.50;;;13.10;99.90;;;;;;5056526;28;20293;-82
2021/05/06 09:59:03;;;;;;;0.10;0.10;;;12.90;99.90;;;;;;5054180;28;20185;-81
2021/05/06 10:01:42;;;;;;;0.20;0.13;;;12.80;99.90;;;;;;5044623;28;20178;-81
2021/05/06 10:04:18;;;;;;;0.10;0.10;;;12.60;99.90;;;;;;5051544;28;20185;-81
2021/05/06 10:07:03;;;;;;;0.40;0.40;;;12.40;99.90;;;;;;5046047;28;20205;-81
2021/05/06 10:09:30;;;;;;;0.10;0.10;;;12.50;99.90;;;;;;5047711;28;20669;-81
2021/05/06 10:11:56;;;;;;;0.20;0.20;;;12.60;99.90;;;;;;5048987;28;20184;-80
2021/05/06 10:14:22;;;;;;;0.43;0.10;;;12.80;99.90;;;;;;5045143;28;20190;-81
2021/05/06 10:16:48;;;;;;;0.10;0.10;;;13.20;99.90;;;;;;5046877;28;20217;-79
2021/05/06 10:19:16;;;;;;;0.03;0.03;;;13.50;99.90;;;;;;5051519;28;20265;-81
2021/05/06 10:21:46;;;;;;;0.00;0.00;;;13.60;99.90;;;;;;5051025;28;20259;-81
2021/05/06 10:24:15;;;;;;;0.27;0.27;;;13.50;99.90;;;;;;5041147;28;20186;-80
2021/05/06 10:26:42;;;;;;;0.10;0.10;;;13.20;99.90;;;;;;5047908;28;20228;-81
2021/05/06 10:29:08;;;;;;;0.27;0.27;;;13.10;99.90;;;;;;5050702;28;20664;-81
2021/05/06 10:31:39;;;;;;;0.10;0.10;;;13.00;99.90;;;;;;5046975;28;20193;-79
2021/05/06 10:34:06;;;;;;;0.10;0.10;;;12.80;99.90;;;;;;5034368;28;20185;-81
2021/05/06 10:36:34;;;;;;;0.33;0.30;;;12.70;99.90;;;;;;5047032;28;20210;-80
2021/05/06 10:39:01;;;;;;;0.20;0.20;;;12.80;99.90;;;;;;5048955;28;20235;-82
2021/05/06 10:41:34;;;;;;;0.10;0.10;;;12.70;99.90;;;;;;5044324;28;20573;-81
2021/05/06 10:44:01;;;;;;;0.20;0.20;;;12.90;99.90;;;;;;5041829;28;20274;-81
2021/05/06 10:47:02;;;;;;;1.07;0.27;;;12.80;99.90;;;;;;5048578;28;20212;-81
2021/05/06 10:49:51;;;;;;;0.10;0.10;;;12.90;99.90;;;;;;5048636;28;20186;-79
2021/05/06 10:52:17;;;;;;;0.40;0.40;;;12.80;99.90;;;;;;5044838;28;20191;-81
2021/05/06 10:54:46;;;;;;;0.20;0.20;;;12.80;99.90;;;;;;5049378;28;20220;-81
2021/05/06 10:57:12;;;;;;;0.10;0.10;;;12.70;99.90;;;;;;5056357;28;20593;-81
2021/05/06 10:59:38;;;;;;;0.20;0.20;;;12.80;99.90;;;;;;5053180;28;20181;-81
2021/05/06 11:02:05;;;;;;;0.20;0.20;;;12.80;99.90;;;;;;5049879;28;20182;-80
2021/05/06 11:04:39;;;;;;;0.10;0.10;;;12.80;99.90;;;;;;5048420;28;20177;-80
2021/05/06 11:07:17;;;;;;;0.20;0.20;;;12.90;99.90;;;;;;5046955;28;20258;-80
2021/05/06 11:09:43;;;;;;;0.33;0.30;;;12.90;99.90;;;;;;5051835;28;20173;-79
2021/05/06 11:12:15;;;;;;;0.10;0.10;;;13.00;99.90;;;;;;5049241;28;20264;-80
2021/05/06 11:15:02;;;;;;;0.10;0.10;;;13.00;99.90;;;;;;5054841;28;20684;-81
2021/05/06 11:17:41;;;;;;;0.20;0.20;;;13.10;99.90;;;;;;5046987;28;20217;-81
2021/05/06 11:20:10;;;;;;;0.00;0.00;;;13.30;99.90;;;;;;5051967;28;20260;-80
2021/05/06 11:27:58;;;;;;;0.30;0.30;;;13.50;99.90;;;;;;5054218;28;20205;-80
2021/05/06 11:30:31;;;;;;;0.20;0.20;;;13.50;99.90;;;;;;5052871;28;20208;-81
2021/05/06 11:33:21;;;;;;;0.43;0.43;;;13.70;99.90;;;;;;5048937;28;20228;-80
2021/05/06 11:36:11;;;;;;;0.10;0.10;;;13.70;99.90;;;;;;5052482;28;20202;-82
2021/05/06 11:38:37;;;;;;;0.10;0.10;;;13.90;99.90;;;;;;5050036;28;20427;-82
2021/05/06 11:41:17;;;;;;;0.17;0.17;;;14.40;99.90;;;;;;5055580;28;20190;-82
2021/05/06 11:44:04;;;;;;;0.10;0.10;;;14.60;99.90;;;;;;5052931;28;20196;-82
2021/05/06 11:46:39;;;;;;;0.30;0.30;;;14.50;99.90;;;;;;5052669;28;20274;-82
2021/05/06 11:49:11;;;;;;;0.30;0.30;;;14.60;99.90;;;;;;5047544;28;20650;-82
2021/05/06 11:51:42;;;;;;;0.20;0.20;;;14.60;99.90;;;;;;5046140;28;20590;-82
2021/05/06 11:54:17;;;;;;;0.47;0.30;;;14.60;99.90;;;;;;5049641;28;20190;-80
2021/05/06 11:56:53;;;;;;;0.10;0.10;;;14.70;99.90;;;;;;5048750;28;20212;-81
2021/05/06 11:59:40;;;;;;;0.10;0.10;;;14.70;99.90;;;;;;5052086;28;20179;-82
2021/05/06 12:02:07;;;;;;;0.20;0.20;;;14.60;99.90;;;;;;5040413;28;20203;-80
2021/05/06 12:04:35;;;;;;;0.47;0.47;;;14.40;99.90;;;;;;5053542;28;20188;-81
2021/05/06 12:07:17;;;;;;;0.20;0.20;;;14.20;99.90;;;;;;5055480;28;20216;-80
2021/05/06 12:09:43;;;;;;;0.20;0.20;;;14.20;99.90;;;;;;5056700;28;20198;-80
2021/05/06 12:12:09;;;;;;;0.20;0.20;;;14.10;99.90;;;;;;5056590;28;20641;-80
2021/05/06 12:14:39;;;;;;;0.20;0.20;;;14.00;99.90;;;;;;5056251;28;20606;-80
2021/05/06 12:17:08;;;;;;;0.67;0.30;;;13.80;99.90;;;;;;5056938;28;20221;-80
2021/05/06 12:19:41;;;;;;;0.30;0.30;;;13.70;99.90;;;;;;5052659;28;20195;-81
2021/05/06 12:22:07;;;;;;;0.40;0.40;;;13.50;99.90;;;;;;5052422;28;20191;-81
2021/05/06 12:24:38;;;;;;;0.33;0.33;;;13.30;99.90;;;;;;5051573;28;20182;-82
2021/05/06 12:27:22;;;;;;;0.20;0.20;;;13.10;99.90;;;;;;5046593;28;20236;-82
2021/05/06 12:29:49;;;;;;;0.10;0.10;;;13.10;99.90;;;;;;5048511;28;20184;-82
2021/05/06 12:32:17;;;;;;;0.10;0.10;;;13.10;99.90;;;;;;5048908;28;20194;-81
2021/05/06 12:34:43;;;;;;;0.30;0.30;;;13.10;99.90;;;;;;5044681;28;20192;-81
2021/05/06 12:37:09;;;;;;;0.20;0.20;;;12.90;99.90;;;;;;5043977;28;20213;-80
2021/05/06 12:39:35;;;;;;;0.30;0.20;;;12.80;99.90;;;;;;5047886;28;20193;-80
2021/05/06 12:42:05;;;;;;;0.20;0.20;;;12.90;99.90;;;;;;5047001;28;20276;-81
2021/05/06 12:44:48;;;;;;;0.30;0.30;;;12.90;99.90;;;;;;5052107;28;20209;-79
2021/05/06 12:47:15;;;;;;;0.83;0.30;;;12.80;99.90;;;;;;5053342;28;20211;-81
2021/05/06 12:49:42;;;;;;;0.10;0.10;;;12.70;99.90;;;;;;5052165;28;20189;-80
2021/05/06 12:52:28;;;;;;;0.20;0.20;;;12.70;99.90;;;;;;5053015;28;20185;-81
2021/05/06 12:54:53;;;;;;;0.40;0.30;;;12.70;99.90;;;;;;5050617;28;20190;-80
2021/05/06 12:57:19;;;;;;;0.10;0.10;;;12.70;99.90;;;;;;5046966;28;20211;-81
2021/05/06 12:59:48;;;;;;;0.20;0.20;;;12.70;99.90;;;;;;5050467;28;20189;-81
2021/05/06 13:02:15;;;;;;;1.23;1.17;;;12.70;99.90;;;;;;5053733;28;20236;-80
2021/05/06 13:04:56;;;;;;;0.40;0.40;;;12.70;99.90;;;;;;5052476;28;20630;-81
2021/05/06 13:07:22;;;;;;;0.40;0.13;;;12.60;99.90;;;;;;5047813;28;20209;-81
2021/05/06 13:09:50;;;;;;;0.33;0.20;;;12.60;99.90;;;;;;5046945;28;20609;-80
2021/05/06 13:12:19;;;;;;;0.10;0.10;;;12.70;99.90;;;;;;5051017;28;20198;-80
2021/05/06 13:14:48;;;;;;;0.10;0.10;;;12.80;99.90;;;;;;5053484;28;20236;-81
2021/05/06 13:17:33;;;;;;;0.10;0.10;;;12.80;99.90;;;;;;5052818;28;20221;-80
2021/05/06 13:20:13;;;;;;;0.73;0.30;;;12.80;99.90;;;;;;5043544;28;20562;-80
2021/05/06 13:22:39;;;;;;;0.87;0.30;;;12.80;99.90;;;;;;5051508;28;20562;-81
2021/05/06 13:25:05;;;;;;;0.47;0.40;;;12.80;99.90;;;;;;5052985;28;20185;-80
2021/05/06 13:27:31;;;;;;;0.30;0.30;;;12.70;99.90;;;;;;5048803;28;20260;-80
2021/05/06 13:30:03;;;;;;;2.63;0.40;;;12.70;99.90;;;;;;5049583;28;20410;-80
2021/05/06 13:32:36;;;;;;;0.10;0.10;;;12.50;99.90;;;;;;5046606;28;20217;-80
2021/05/06 13:35:05;;;;;;;0.20;0.20;;;12.40;99.90;;;;;;5051728;28;20192;-79
2021/05/06 13:37:38;;;;;;;0.17;0.17;;;12.40;99.90;;;;;;5053374;28;20213;-80
2021/05/06 13:40:06;;;;;;;0.20;0.20;;;12.30;99.90;;;;;;5051241;28;20190;-80
2021/05/06 13:42:31;;;;;;;0.80;0.57;;;12.30;99.90;;;;;;5050721;28;21527;-80
2021/05/06 13:44:58;;;;;;;0.20;0.20;;;12.20;99.90;;;;;;5054325;28;20193;-80
2021/05/06 13:47:25;;;;;;;0.10;0.10;;;12.10;99.90;;;;;;5050896;28;20209;-80
2021/05/06 13:49:51;;;;;;;0.27;0.23;;;12.10;99.90;;;;;;5052718;28;20220;-81
2021/05/06 13:52:17;;;;;;;0.10;0.10;;;12.20;99.90;;;;;;5051538;28;20182;-79
2021/05/06 13:54:43;;;;;;;0.27;0.27;;;12.20;99.90;;;;;;5053420;28;20193;-80
2021/05/06 13:57:09;;;;;;;0.27;0.10;;;12.10;99.90;;;;;;5051464;28;20209;-80
2021/05/06 13:59:34;;;;;;;0.77;0.30;;;12.00;99.90;;;;;;5049356;28;20189;-78
2021/05/06 14:02:00;;;;;;;0.10;0.10;;;11.90;99.90;;;;;;5050565;28;20182;-80
2021/05/06 14:04:26;;;;;;;0.37;0.37;;;11.90;99.90;;;;;;5050692;28;20170;-80
2021/05/06 14:06:52;;;;;;;0.10;0.10;;;11.70;99.90;;;;;;5050229;28;20209;-80
2021/05/06 14:09:19;;;;;;;0.20;0.20;;;11.70;99.90;;;;;;5040457;28;20251;-83
2021/05/06 14:11:48;;;;;;;0.27;0.27;;;11.70;99.90;;;;;;5044189;28;20190;-84
2021/05/06 14:14:16;;;;;;;0.03;0.03;;;11.90;99.90;;;;;;5048549;28;20189;-81
2021/05/06 14:16:42;;;;;;;0.70;0.67;;;11.90;99.90;;;;;;5049142;28;20772;-80
2021/05/06 14:19:08;;;;;;;0.13;0.10;;;12.00;99.90;;;;;;5048445;28;20185;-82
2021/05/06 14:21:35;;;;;;;0.03;0.03;;;12.00;99.90;;;;;;5050818;28;20197;-81
2021/05/06 14:24:01;;;;;;;0.03;0.03;;;12.20;99.90;;;;;;5052161;28;20558;-82
2021/05/06 14:26:27;;;;;;;0.10;0.10;;;12.10;99.90;;;;;;5046230;28;20210;-82
2021/05/06 14:28:52;;;;;;;0.20;0.20;;;12.10;99.90;;;;;;5049902;28;20652;-82
2021/05/06 14:31:18;;;;;;;0.43;0.43;;;11.90;99.90;;;;;;5050337;28;20184;-81
2021/05/06 14:33:44;;;;;;;0.10;0.10;;;11.70;99.90;;;;;;5047950;28;20259;-80
2021/05/06 14:36:10;;;;;;;0.10;0.10;;;11.60;99.90;;;;;;5051900;28;20908;-80
2021/05/06 14:38:37;;;;;;;0.00;0.00;;;11.50;99.90;;;;;;5053544;28;20170;-80
2021/05/06 14:41:04;;;;;;;0.20;0.20;;;11.30;99.90;;;;;;5050036;28;20179;-79
2021/05/06 14:43:29;;;;;;;0.10;0.10;;;11.30;99.90;;;;;;5051212;28;20187;-81
2021/05/06 14:45:55;;;;;;;0.10;0.10;;;11.20;99.90;;;;;;5050288;28;20744;-83
2021/05/06 14:48:21;;;;;;;0.53;0.40;;;11.00;99.90;;;;;;5054841;28;20257;-81
2021/05/06 14:50:47;;;;;;;0.30;0.30;;;10.90;99.90;;;;;;5054989;28;20644;-81
2021/05/06 14:53:12;;;;;;;0.10;0.10;;;11.00;99.90;;;;;;5050492;28;20559;-81
2021/05/06 14:55:38;;;;;;;0.17;0.17;;;11.00;99.90;;;;;;5051274;28;20215;-80
2021/05/06 14:58:04;;;;;;;0.13;0.13;;;10.90;99.90;;;;;;5052443;28;20213;-82
2021/05/06 15:00:30;;;;;;;0.20;0.20;;;10.90;99.90;;;;;;5053839;28;20676;-80
2021/05/06 15:02:59;;;;;;;0.10;0.10;;;10.90;99.90;;;;;;5048130;28;20216;-82
2021/05/06 15:05:24;;;;;;;0.43;0.30;;;10.80;99.90;;;;;;5050053;28;20280;-82
2021/05/06 15:07:50;;;;;;;0.10;0.10;;;10.50;99.90;;;;;;5050603;28;20347;-82
2021/05/06 15:10:15;;;;;;;0.30;0.30;;;10.30;99.90;;;;;;5049531;28;20193;-81
2021/05/06 15:12:47;;;;;;;0.10;0.10;;;10.40;99.90;;;;;;5052743;28;20190;-82
2021/05/06 15:15:15;;;;;;;0.30;0.30;;;10.50;99.90;;;;;;5050581;28;20279;-81
2021/05/06 15:17:41;;;;;;;0.40;0.40;;;10.00;99.90;;;;;;5054566;28;20661;-80
2021/05/06 15:20:08;;;;;;;0.10;0.10;;;9.80;99.90;;;;;;5054321;28;20583;-81
2021/05/06 15:22:34;;;;;;;0.17;0.17;;;9.70;99.90;;;;;;5049447;28;20232;-81
2021/05/06 15:25:00;;;;;;;0.27;0.27;;;9.60;99.90;;;;;;5057923;28;20287;-81
2021/05/06 15:27:26;;;;;;;0.33;0.33;;;9.30;99.90;;;;;;5056508;28;20688;-81
2021/05/06 15:29:52;;;;;;;0.33;0.30;;;9.50;99.90;;;;;;5052043;28;20204;-81
2021/05/06 15:32:18;;;;;;;0.10;0.10;;;9.60;99.90;;;;;;5053372;28;20534;-80
2021/05/06 15:34:44;;;;;;;0.20;0.20;;;9.20;99.90;;;;;;5049945;28;20195;-81
2021/05/06 15:37:10;;;;;;;0.10;0.10;;;9.30;99.90;;;;;;5051838;28;20211;-81
2021/05/06 15:39:36;;;;;;;0.40;0.40;;;9.20;99.90;;;;;;5049137;28;20612;-81
2021/05/06 15:42:03;;;;;;;0.10;0.10;;;9.20;99.90;;;;;;5045442;28;20185;-81
2021/05/06 15:44:28;;;;;;;0.40;0.40;;;9.00;99.90;;;;;;5048807;28;20660;-80
2021/05/06 15:46:58;;;;;;;0.10;0.10;;;9.00;99.90;;;;;;5054214;28;20219;-81
2021/05/06 15:49:31;;;;;;;0.30;0.30;;;9.20;99.90;;;;;;5053454;28;20743;-81
2021/05/06 15:51:57;;;;;;;0.33;0.33;;;8.90;99.90;;;;;;5049317;28;20667;-79
2021/05/06 15:54:22;;;;;;;0.10;0.10;;;8.90;99.90;;;;;;5054739;28;20192;-80
2021/05/06 15:56:48;;;;;;;0.07;0.07;;;8.80;99.90;;;;;;5046878;28;20219;-79
2021/05/06 15:59:14;;;;;;;0.37;0.37;;;8.70;99.90;;;;;;5056112;28;20203;-79
2021/05/06 16:01:39;;;;;;;0.40;0.23;;;8.60;99.90;;;;;;5052553;28;20182;-81
2021/05/06 16:04:08;;;;;;;0.20;0.13;;;8.50;99.90;;;;;;5054709;28;20326;-80
2021/05/06 16:06:33;;;;;;;0.40;0.30;;;8.50;99.90;;;;;;5053768;28;20207;-81
2021/05/06 16:08:59;;;;;;;4.27;0.57;;;8.50;99.90;;;;;;5053633;28;20194;-80
2021/05/06 16:11:25;;;;;;;0.07;0.07;;;8.50;99.90;;;;;;5053175;28;20178;-81
2021/05/06 16:13:50;;;;;;;0.10;0.10;;;8.50;99.90;;;;;;5052326;28;20178;-80
2021/05/06 16:16:16;;;;;;;0.07;0.07;;;8.40;99.90;;;;;;5050924;28;20226;-79
2021/05/06 16:18:46;;;;;;;0.10;0.10;;;8.30;99.90;;;;;;5056487;28;20192;-81
2021/05/06 16:21:15;;;;;;;0.20;0.20;;;8.40;99.90;;;;;;5053448;28;20591;-81
2021/05/06 16:23:41;;;;;;;0.10;0.10;;;8.30;99.90;;;;;;5054291;28;20201;-80
2021/05/06 16:26:10;;;;;;;2.47;0.60;;;8.30;99.90;;;;;;5054518;28;20214;-80
2021/05/06 16:28:36;;;;;;;0.07;0.07;;;8.30;99.90;;;;;;5059062;28;20729;-81